Time;durP1;ratioP1;P1;durP2;ratioP2;P2;SDS_P1;SDS_P2;PMS_P1;PMS_P2;Temp;Humidity;BMP_temperature;BMP_pressure;BME280_temperature;BME280_humidity;BME280_pressure;Samples;Min_cycle;Max_cycle;Signal;HPM_P1;HPM_P2
2021/05/13 00:00:01;;;;;;;1.30;1.17;;;23.70;42.30;;;;;;5093609;28;20443;-67
2021/05/13 00:02:27;;;;;;;2.05;1.27;;;23.60;42.20;;;;;;5077093;28;20396;-68
2021/05/13 00:04:54;;;;;;;4.00;1.63;;;23.60;42.40;;;;;;5077088;28;20025;-67
2021/05/13 00:07:20;;;;;;;2.28;1.05;;;23.50;42.90;;;;;;5091758;28;20016;-67
2021/05/13 00:09:48;;;;;;;1.05;0.85;;;23.60;42.70;;;;;;5097088;28;20022;-67
2021/05/13 00:15:17;;;;;;;4.53;2.35;;;23.50;43.10;;;;;;5063143;28;20036;-68
2021/05/13 00:17:44;;;;;;;2.83;1.05;;;23.40;43.30;;;;;;5097260;28;20078;-68
2021/05/13 00:20:14;;;;;;;2.97;0.80;;;23.40;43.20;;;;;;5079238;28;20020;-68
2021/05/13 00:22:40;;;;;;;3.60;1.30;;;23.00;44.80;;;;;;5096943;28;20035;-68
2021/05/13 00:25:08;;;;;;;1.13;0.75;;;23.30;43.30;;;;;;5097270;28;20032;-68
2021/05/13 00:27:35;;;;;;;1.25;0.80;;;23.30;43.40;;;;;;5096847;28;20028;-68
2021/05/13 00:30:02;;;;;;;3.10;1.35;;;23.20;43.30;;;;;;5096578;28;20016;-67
2021/05/13 00:32:28;;;;;;;5.45;2.00;;;23.10;43.40;;;;;;5096506;28;20020;-67
2021/05/13 00:34:55;;;;;;;5.22;1.83;;;23.10;43.40;;;;;;5096803;28;20023;-68
2021/05/13 00:37:21;;;;;;;5.78;1.75;;;23.00;43.60;;;;;;5096587;28;20059;-67
2021/05/13 00:39:48;;;;;;;5.30;1.05;;;23.00;43.80;;;;;;5096984;28;20519;-67
2021/05/13 00:42:15;;;;;;;5.30;1.50;;;23.00;44.20;;;;;;5091798;28;20016;-68
2021/05/13 00:44:45;;;;;;;5.78;1.58;;;22.60;44.80;;;;;;5084786;28;20028;-68
2021/05/13 00:47:14;;;;;;;5.93;1.23;;;22.70;44.90;;;;;;5098269;28;20039;-68
2021/05/13 00:49:41;;;;;;;3.42;1.13;;;22.70;44.80;;;;;;5089054;28;20024;-69
2021/05/13 00:52:09;;;;;;;2.85;1.70;;;22.70;44.50;;;;;;5095432;28;20024;-67
2021/05/13 00:54:42;;;;;;;3.28;1.50;;;22.60;45.00;;;;;;5080806;28;20458;-68
2021/05/13 00:57:11;;;;;;;3.85;1.35;;;22.50;45.20;;;;;;5097388;28;20048;-68
2021/05/13 00:59:39;;;;;;;4.35;1.30;;;22.70;44.50;;;;;;5089212;28;20444;-67
2021/05/13 01:02:06;;;;;;;3.38;1.38;;;22.60;44.90;;;;;;5088373;28;20020;-68
2021/05/13 01:04:32;;;;;;;5.70;1.30;;;22.70;44.50;;;;;;5078055;28;20028;-68
2021/05/13 01:06:59;;;;;;;2.10;1.30;;;22.20;45.20;;;;;;5091715;28;20043;-67
2021/05/13 01:09:28;;;;;;;9.30;1.50;;;22.30;45.30;;;;;;5074901;28;20031;-67
2021/05/13 01:11:58;;;;;;;3.88;1.48;;;22.30;45.40;;;;;;5094132;28;20016;-68
2021/05/13 01:14:31;;;;;;;1.63;0.98;;;22.20;45.10;;;;;;5076341;28;20458;-68
2021/05/13 01:17:04;;;;;;;4.28;1.20;;;22.10;45.40;;;;;;5094140;28;20024;-67
2021/05/13 01:19:31;;;;;;;3.55;1.02;;;22.00;45.90;;;;;;5073529;28;20020;-68
2021/05/13 01:21:57;;;;;;;5.28;1.55;;;22.20;45.30;;;;;;5092920;28;20154;-68
2021/05/13 01:24:24;;;;;;;13.90;2.20;;;22.10;45.20;;;;;;5093967;28;20055;-68
2021/05/13 01:26:51;;;;;;;4.10;1.13;;;22.20;44.80;;;;;;5074432;28;20043;-68
2021/05/13 01:29:23;;;;;;;2.63;1.83;;;22.00;45.10;;;;;;5089026;28;20074;-68
2021/05/13 01:31:50;;;;;;;3.35;1.35;;;21.90;45.20;;;;;;5091675;28;20500;-67
2021/05/13 01:34:17;;;;;;;7.00;2.53;;;22.00;45.00;;;;;;5089063;28;20455;-68
2021/05/13 01:36:44;;;;;;;3.20;2.08;;;21.80;44.90;;;;;;5072764;28;20035;-67
2021/05/13 01:39:11;;;;;;;4.25;1.90;;;21.60;45.40;;;;;;5089172;28;20063;-68
2021/05/13 01:41:40;;;;;;;3.28;1.17;;;21.60;45.70;;;;;;5082732;28;20448;-68
2021/05/13 01:44:07;;;;;;;7.32;1.88;;;21.30;45.90;;;;;;5092156;28;20024;-68
2021/05/13 01:46:34;;;;;;;4.38;1.35;;;21.10;46.50;;;;;;5090646;28;20039;-68
2021/05/13 01:49:00;;;;;;;5.10;1.40;;;20.90;46.40;;;;;;5086948;28;20081;-68
2021/05/13 01:51:27;;;;;;;12.18;1.63;;;20.90;47.00;;;;;;5076447;28;20141;-68
2021/05/13 01:53:54;;;;;;;3.22;2.15;;;20.60;46.90;;;;;;5090358;28;20039;-68
2021/05/13 01:56:20;;;;;;;6.20;2.42;;;20.70;47.10;;;;;;5089724;28;20039;-67
2021/05/13 01:58:47;;;;;;;4.57;2.08;;;20.60;47.30;;;;;;5093092;28;20016;-68
2021/05/13 02:01:15;;;;;;;3.40;1.73;;;20.40;47.80;;;;;;5089160;28;20149;-68
2021/05/13 02:03:44;;;;;;;5.45;2.30;;;20.20;47.70;;;;;;5088517;28;20020;-68
2021/05/13 02:06:11;;;;;;;4.88;1.70;;;20.00;48.00;;;;;;5078430;28;20063;-68
2021/05/13 02:08:38;;;;;;;7.55;2.22;;;19.90;48.60;;;;;;5093664;28;20036;-68
2021/05/13 02:11:04;;;;;;;3.33;2.20;;;19.60;49.00;;;;;;5094421;28;20108;-68
2021/05/13 02:13:31;;;;;;;2.63;1.40;;;19.40;49.70;;;;;;5077031;28;20020;-67
2021/05/13 02:15:57;;;;;;;5.47;2.03;;;19.30;50.00;;;;;;5075793;28;20031;-67
2021/05/13 02:18:24;;;;;;;3.58;1.85;;;19.10;51.10;;;;;;5072760;28;20047;-68
2021/05/13 02:20:50;;;;;;;7.28;1.65;;;18.90;51.60;;;;;;5092261;28;20123;-68
2021/05/13 02:23:17;;;;;;;3.17;2.15;;;18.50;51.60;;;;;;5099688;28;20039;-68
2021/05/13 02:25:46;;;;;;;4.55;1.67;;;18.20;51.80;;;;;;5093875;28;20036;-68
2021/05/13 02:28:14;;;;;;;2.75;1.60;;;18.20;52.80;;;;;;5076802;28;20051;-67
2021/05/13 02:30:40;;;;;;;2.42;1.55;;;18.10;53.00;;;;;;5100312;28;20041;-68
2021/05/13 02:33:06;;;;;;;2.42;1.77;;;18.10;52.20;;;;;;5096444;28;20032;-67
2021/05/13 02:35:33;;;;;;;3.38;1.88;;;18.00;53.50;;;;;;5077459;28;20454;-68
2021/05/13 02:38:00;;;;;;;4.55;1.60;;;17.80;53.30;;;;;;5077905;28;20040;-67
2021/05/13 02:40:26;;;;;;;8.15;1.98;;;17.90;53.10;;;;;;5060825;28;20029;-67
2021/05/13 02:42:53;;;;;;;7.13;2.42;;;17.60;53.90;;;;;;5101463;28;20027;-67
2021/05/13 02:45:19;;;;;;;6.82;2.30;;;17.50;54.20;;;;;;5090199;28;20075;-67
2021/05/13 02:47:46;;;;;;;2.65;1.48;;;17.40;53.40;;;;;;5088189;28;20359;-68
2021/05/13 02:50:16;;;;;;;3.50;1.73;;;17.40;54.80;;;;;;5093419;28;20037;-68
2021/05/13 02:52:42;;;;;;;4.38;1.70;;;17.30;53.70;;;;;;5097972;28;20119;-67
2021/05/13 02:55:10;;;;;;;5.22;2.92;;;17.20;54.70;;;;;;5093307;28;20170;-68
2021/05/13 02:57:37;;;;;;;6.97;3.85;;;17.20;54.70;;;;;;5090619;28;20451;-68
2021/05/13 03:02:44;;;;;;;17.27;11.40;;;17.10;55.00;;;;;;5078280;28;20022;-68
2021/05/13 03:05:12;;;;;;;4.68;1.75;;;17.00;54.70;;;;;;5071964;28;20039;-67
2021/05/13 03:07:49;;;;;;;6.00;2.00;;;17.00;54.80;;;;;;5092564;28;20085;-67
2021/05/13 03:10:22;;;;;;;3.50;2.67;;;17.10;55.60;;;;;;5091235;28;20328;-68
2021/05/13 03:12:52;;;;;;;6.53;2.80;;;16.80;54.60;;;;;;5088287;28;20382;-67
2021/05/13 03:15:18;;;;;;;4.55;1.92;;;16.70;56.70;;;;;;5099742;28;20027;-68
2021/05/13 03:17:45;;;;;;;2.42;1.83;;;16.70;56.60;;;;;;5093486;28;20023;-68
2021/05/13 03:20:15;;;;;;;5.43;2.33;;;16.60;55.50;;;;;;5100695;28;20032;-68
2021/05/13 03:22:42;;;;;;;5.00;2.00;;;16.70;55.00;;;;;;5096220;28;20052;-68
2021/05/13 03:25:10;;;;;;;4.30;1.63;;;16.70;54.50;;;;;;5094043;28;20020;-68
2021/05/13 03:30:10;;;;;;;5.00;2.45;;;16.50;54.20;;;;;;5088560;28;20066;-68
2021/05/13 03:32:36;;;;;;;4.60;1.83;;;16.60;54.60;;;;;;5079769;28;20040;-68
2021/05/13 03:35:03;;;;;;;8.60;3.08;;;16.60;55.60;;;;;;5094789;28;20093;-68
2021/05/13 03:37:30;;;;;;;2.83;2.40;;;16.50;56.50;;;;;;5086890;28;20020;-68
2021/05/13 03:39:57;;;;;;;6.07;2.10;;;16.40;57.50;;;;;;5093361;28;20105;-67
2021/05/13 03:42:24;;;;;;;1.90;1.75;;;16.60;55.30;;;;;;5090089;28;20435;-67
2021/05/13 03:44:51;;;;;;;8.63;2.72;;;16.40;55.60;;;;;;5095975;28;20490;-69
2021/05/13 03:47:19;;;;;;;9.25;2.15;;;16.10;57.70;;;;;;5097281;28;20480;-67
2021/05/13 03:49:45;;;;;;;5.03;1.52;;;16.20;56.60;;;;;;5097628;28;20028;-67
2021/05/13 03:52:12;;;;;;;8.25;2.53;;;16.20;55.20;;;;;;5076395;28;20115;-67
2021/05/13 03:54:39;;;;;;;10.40;2.92;;;16.40;56.20;;;;;;5071921;28;20025;-67
2021/05/13 03:57:06;;;;;;;3.55;1.58;;;16.20;58.00;;;;;;5090679;28;20052;-67
2021/05/13 03:59:37;;;;;;;7.90;2.45;;;16.30;56.80;;;;;;5088246;28;20359;-68
2021/05/13 04:02:28;;;;;;;7.05;2.08;;;15.90;58.50;;;;;;5075575;28;20027;-68
2021/05/13 04:04:54;;;;;;;3.05;1.75;;;16.10;58.10;;;;;;5105420;28;20035;-68
2021/05/13 04:07:21;;;;;;;3.50;1.65;;;16.00;57.80;;;;;;5089626;28;20036;-68
2021/05/13 04:09:48;;;;;;;4.28;2.42;;;16.00;57.60;;;;;;5105076;28;20015;-67
2021/05/13 04:12:14;;;;;;;7.38;3.47;;;15.70;60.00;;;;;;5095563;28;20028;-68
2021/05/13 04:14:41;;;;;;;3.05;1.88;;;15.80;58.80;;;;;;5101654;28;20455;-67
2021/05/13 04:17:08;;;;;;;2.65;1.67;;;15.50;61.60;;;;;;5096826;28;20450;-68
2021/05/13 04:19:34;;;;;;;6.10;2.00;;;15.70;59.10;;;;;;5093854;28;20020;-68
2021/05/13 04:22:02;;;;;;;4.78;2.67;;;15.80;57.30;;;;;;5093465;28;20028;-67
2021/05/13 04:24:28;;;;;;;4.30;1.67;;;15.80;57.30;;;;;;5093555;28;20073;-67
2021/05/13 04:26:55;;;;;;;5.45;2.08;;;15.80;57.50;;;;;;5077688;28;20078;-68
2021/05/13 04:29:21;;;;;;;2.30;1.90;;;15.90;57.30;;;;;;5096674;28;20107;-68
2021/05/13 04:31:47;;;;;;;7.00;2.08;;;15.80;58.40;;;;;;5096860;28;20050;-68
2021/05/13 04:34:14;;;;;;;9.15;2.42;;;15.90;58.10;;;;;;5096464;28;20457;-67
2021/05/13 04:36:40;;;;;;;7.57;2.25;;;16.00;57.60;;;;;;5096521;28;20055;-67
2021/05/13 04:39:07;;;;;;;5.95;2.42;;;15.90;57.40;;;;;;5094965;28;20107;-68
2021/05/13 04:41:34;;;;;;;4.55;2.00;;;15.90;56.50;;;;;;5094468;28;20024;-67
2021/05/13 04:44:02;;;;;;;4.63;1.80;;;15.80;56.70;;;;;;5094599;28;20405;-67
2021/05/13 04:46:31;;;;;;;6.05;2.38;;;15.70;56.70;;;;;;5091990;28;20028;-67
2021/05/13 04:51:30;;;;;;;5.50;2.13;;;15.60;58.80;;;;;;5095350;28;20023;-67
2021/05/13 04:53:57;;;;;;;6.30;2.28;;;15.60;58.70;;;;;;5094574;28;20027;-67
2021/05/13 04:56:23;;;;;;;3.00;2.00;;;15.70;59.20;;;;;;5093670;28;20046;-67
2021/05/13 04:58:51;;;;;;;6.00;2.83;;;15.70;57.80;;;;;;5076459;28;20024;-68
2021/05/13 05:01:18;;;;;;;5.28;2.30;;;15.70;57.90;;;;;;5076487;28;20028;-67
2021/05/13 05:03:45;;;;;;;2.97;2.13;;;15.70;59.50;;;;;;5094279;28;20028;-67
2021/05/13 05:06:12;;;;;;;6.22;2.50;;;15.60;58.20;;;;;;5089171;28;20131;-68
2021/05/13 05:08:39;;;;;;;6.03;2.50;;;15.50;57.70;;;;;;5094499;28;20026;-67
2021/05/13 05:11:06;;;;;;;5.13;2.33;;;15.60;59.20;;;;;;5095878;28;20111;-68
2021/05/13 05:13:34;;;;;;;3.83;2.35;;;15.60;58.90;;;;;;5077073;28;20024;-67
2021/05/13 05:16:01;;;;;;;6.82;2.60;;;15.70;59.90;;;;;;5091995;28;20024;-67
2021/05/13 05:18:28;;;;;;;10.65;2.67;;;15.40;59.50;;;;;;5074238;28;20036;-67
2021/05/13 05:20:54;;;;;;;7.35;3.53;;;15.30;59.70;;;;;;5087937;28;20054;-67
2021/05/13 05:23:21;;;;;;;1.80;1.70;;;15.30;58.60;;;;;;5091452;28;20032;-68
2021/05/13 05:25:48;;;;;;;4.28;3.88;;;15.20;60.10;;;;;;5094553;28;20028;-67
2021/05/13 05:28:15;;;;;;;5.78;2.70;;;15.30;59.30;;;;;;5090633;28;20031;-67
2021/05/13 05:30:42;;;;;;;3.97;2.22;;;15.40;61.20;;;;;;5094636;28;20028;-67
2021/05/13 05:33:10;;;;;;;7.55;2.97;;;15.40;59.50;;;;;;5096176;28;20056;-67
2021/05/13 05:35:38;;;;;;;6.13;2.78;;;15.40;59.80;;;;;;5101122;28;20020;-67
2021/05/13 05:38:06;;;;;;;6.07;2.20;;;15.30;59.80;;;;;;5095264;28;20485;-67
2021/05/13 05:40:33;;;;;;;10.35;3.20;;;15.30;60.10;;;;;;5089581;28;20149;-68
2021/05/13 05:42:59;;;;;;;5.30;2.40;;;15.10;60.00;;;;;;5094564;28;20027;-67
2021/05/13 05:45:26;;;;;;;6.88;3.30;;;15.20;60.20;;;;;;5103224;28;20024;-68
2021/05/13 05:48:01;;;;;;;5.25;2.92;;;15.20;61.50;;;;;;5094769;28;20612;-68
2021/05/13 05:50:36;;;;;;;6.18;2.00;;;15.10;60.30;;;;;;5092544;28;20514;-67
2021/05/13 05:53:03;;;;;;;5.68;2.22;;;15.10;60.70;;;;;;5093193;28;20035;-68
2021/05/13 05:55:31;;;;;;;7.43;2.85;;;15.20;61.30;;;;;;5092340;28;20471;-68
2021/05/13 05:57:58;;;;;;;7.38;3.33;;;15.10;61.00;;;;;;5092031;28;20032;-67
2021/05/13 06:00:25;;;;;;;3.83;2.45;;;15.00;60.10;;;;;;5093654;28;20070;-67
2021/05/13 06:02:52;;;;;;;3.58;2.25;;;14.80;60.20;;;;;;5075581;28;20029;-67
2021/05/13 06:05:18;;;;;;;3.65;2.85;;;14.90;60.60;;;;;;5091257;28;20407;-67
2021/05/13 06:07:45;;;;;;;4.18;2.50;;;14.90;60.70;;;;;;5094207;28;20020;-67
2021/05/13 06:10:13;;;;;;;4.43;2.60;;;14.80;60.30;;;;;;5083254;28;20034;-67
2021/05/13 06:12:42;;;;;;;5.57;2.63;;;15.00;63.00;;;;;;5091514;28;20110;-68
2021/05/13 06:15:11;;;;;;;8.80;3.22;;;14.90;62.10;;;;;;5091921;28;20085;-68
2021/05/13 06:17:38;;;;;;;6.10;2.25;;;14.80;61.40;;;;;;5089470;28;20020;-67
2021/05/13 06:20:07;;;;;;;3.55;2.30;;;14.70;61.60;;;;;;5080308;28;20024;-68
2021/05/13 06:22:34;;;;;;;6.00;2.33;;;14.70;61.50;;;;;;5076847;28;20036;-67
2021/05/13 06:25:00;;;;;;;5.93;3.22;;;14.80;61.80;;;;;;5089861;28;20032;-67
2021/05/13 06:27:28;;;;;;;10.25;2.70;;;14.90;62.40;;;;;;5081168;28;20403;-67
2021/05/13 06:29:54;;;;;;;3.92;2.05;;;14.90;62.50;;;;;;5089907;28;20103;-67
2021/05/13 06:32:21;;;;;;;12.75;2.83;;;14.70;61.10;;;;;;5093051;28;20032;-67
2021/05/13 06:34:48;;;;;;;6.30;2.63;;;14.80;61.80;;;;;;5090861;28;20111;-67
2021/05/13 06:37:14;;;;;;;2.42;2.22;;;14.70;61.70;;;;;;5088694;28;20450;-67
2021/05/13 06:39:40;;;;;;;9.13;2.63;;;14.80;63.30;;;;;;5094768;28;20016;-67
2021/05/13 06:42:07;;;;;;;3.17;2.40;;;14.70;62.70;;;;;;5092686;28;20085;-67
2021/05/13 06:44:33;;;;;;;5.60;2.42;;;14.50;62.30;;;;;;5076623;28;20020;-68
2021/05/13 06:47:01;;;;;;;3.08;2.15;;;14.60;62.60;;;;;;5093197;28;20077;-68
2021/05/13 06:49:27;;;;;;;4.85;1.92;;;14.50;63.20;;;;;;5091546;28;20050;-67
2021/05/13 06:51:54;;;;;;;2.97;2.17;;;14.60;63.90;;;;;;5085804;28;20028;-67
2021/05/13 06:54:21;;;;;;;2.72;2.33;;;14.40;62.10;;;;;;5074933;28;20089;-67
2021/05/13 06:56:48;;;;;;;4.53;2.45;;;14.30;62.60;;;;;;5090176;28;20032;-67
2021/05/13 06:59:15;;;;;;;2.65;1.77;;;14.30;62.10;;;;;;5090871;28;20518;-67
2021/05/13 07:01:41;;;;;;;4.93;2.33;;;14.30;62.30;;;;;;5096507;28;20028;-67
2021/05/13 07:04:08;;;;;;;3.47;1.98;;;14.50;62.60;;;;;;5092522;28;20032;-67
2021/05/13 07:06:36;;;;;;;5.78;2.17;;;14.50;64.40;;;;;;5093201;28;20055;-67
2021/05/13 07:09:07;;;;;;;5.93;2.72;;;14.50;64.40;;;;;;5093351;28;20086;-69
2021/05/13 07:11:34;;;;;;;3.22;2.30;;;14.50;64.00;;;;;;5093327;28;20103;-67
2021/05/13 07:14:01;;;;;;;3.90;2.80;;;14.50;63.30;;;;;;5093219;28;20466;-69
2021/05/13 07:16:28;;;;;;;5.07;3.05;;;14.50;64.00;;;;;;5089050;28;20430;-68
2021/05/13 07:18:54;;;;;;;4.22;2.00;;;14.50;64.50;;;;;;5092094;28;20069;-68
2021/05/13 07:21:21;;;;;;;4.35;2.88;;;14.40;63.90;;;;;;5089610;28;20459;-67
2021/05/13 07:23:47;;;;;;;3.67;1.92;;;14.40;63.80;;;;;;5089388;28;20027;-67
2021/05/13 07:26:14;;;;;;;3.47;2.35;;;14.40;64.40;;;;;;5096389;28;20115;-68
2021/05/13 07:28:40;;;;;;;10.70;2.58;;;14.30;64.70;;;;;;5076552;28;20034;-67
2021/05/13 07:31:08;;;;;;;5.43;2.63;;;14.30;64.30;;;;;;5101168;28;20020;-68
2021/05/13 07:33:36;;;;;;;2.90;1.95;;;14.30;63.90;;;;;;5089731;28;20031;-67
2021/05/13 07:36:03;;;;;;;2.15;1.98;;;14.40;65.50;;;;;;5090875;28;20032;-67
2021/05/13 07:38:29;;;;;;;2.38;2.08;;;14.30;63.60;;;;;;5089849;28;20020;-68
2021/05/13 07:40:55;;;;;;;2.63;2.00;;;14.20;63.60;;;;;;5086835;28;20157;-67
2021/05/13 07:43:22;;;;;;;1.67;1.58;;;14.10;63.30;;;;;;5075762;28;20035;-67
2021/05/13 07:45:49;;;;;;;3.28;2.83;;;14.10;63.50;;;;;;5093167;28;20420;-67
2021/05/13 07:48:16;;;;;;;4.28;2.50;;;14.10;64.30;;;;;;5100782;28;20032;-68
2021/05/13 07:50:42;;;;;;;4.20;1.98;;;14.10;64.00;;;;;;5092344;28;20066;-68
2021/05/13 07:53:09;;;;;;;3.35;1.77;;;14.20;65.50;;;;;;5090677;28;20034;-68
2021/05/13 07:55:37;;;;;;;3.70;1.75;;;14.20;64.10;;;;;;5092152;28;20082;-67
2021/05/13 07:58:04;;;;;;;3.85;2.45;;;14.20;64.70;;;;;;5090705;28;20020;-67
2021/05/13 08:00:30;;;;;;;5.40;1.98;;;14.30;64.70;;;;;;5094941;28;20116;-67
2021/05/13 08:02:57;;;;;;;3.17;1.73;;;14.10;65.30;;;;;;5097576;28;20016;-67
2021/05/13 08:05:23;;;;;;;2.42;1.85;;;14.00;65.40;;;;;;5079634;28;20032;-69
2021/05/13 08:07:50;;;;;;;4.85;1.90;;;14.00;64.30;;;;;;5096889;28;20455;-69
2021/05/13 08:10:16;;;;;;;3.58;2.38;;;14.10;65.00;;;;;;5091849;28;20127;-69
2021/05/13 08:12:43;;;;;;;5.10;2.22;;;14.30;65.00;;;;;;5091596;28;20367;-69
2021/05/13 08:15:12;;;;;;;2.38;2.10;;;14.30;64.90;;;;;;5095640;28;20032;-69
2021/05/13 08:17:43;;;;;;;6.38;2.00;;;14.30;65.90;;;;;;5097327;28;20039;-69
2021/05/13 08:20:12;;;;;;;8.40;3.33;;;14.30;65.10;;;;;;5080641;28;20028;-68
2021/05/13 08:22:40;;;;;;;2.80;1.98;;;14.40;65.10;;;;;;5096132;28;20080;-69
2021/05/13 08:25:08;;;;;;;2.30;2.08;;;14.40;66.00;;;;;;5096579;28;20516;-69
2021/05/13 08:27:35;;;;;;;3.13;2.60;;;14.40;65.00;;;;;;5079241;28;20502;-69
2021/05/13 08:30:03;;;;;;;2.90;2.30;;;14.20;65.70;;;;;;5095472;28;20063;-69
2021/05/13 08:32:30;;;;;;;5.95;1.98;;;14.20;65.40;;;;;;5094869;28;20024;-69
2021/05/13 08:34:56;;;;;;;3.67;2.15;;;14.30;66.10;;;;;;5093584;28;20013;-69
2021/05/13 08:37:23;;;;;;;5.32;2.90;;;14.40;66.50;;;;;;5095950;28;20090;-69
2021/05/13 08:39:50;;;;;;;2.55;2.25;;;14.30;65.50;;;;;;5096192;28;20016;-69
2021/05/13 08:42:16;;;;;;;2.88;2.20;;;14.20;66.30;;;;;;5096014;28;20447;-69
2021/05/13 08:44:44;;;;;;;3.15;1.80;;;14.30;66.00;;;;;;5092829;28;20032;-69
2021/05/13 08:47:11;;;;;;;4.95;2.13;;;14.30;66.40;;;;;;5095550;28;20039;-68
2021/05/13 08:49:40;;;;;;;2.92;2.50;;;14.20;66.30;;;;;;5095650;28;20551;-68
2021/05/13 08:52:20;;;;;;;4.53;2.38;;;14.30;65.80;;;;;;5095631;28;20137;-68
2021/05/13 08:55:04;;;;;;;1.85;1.73;;;14.30;65.50;;;;;;5092280;28;20423;-68
2021/05/13 08:57:31;;;;;;;6.93;2.13;;;14.30;66.00;;;;;;5091786;28;20051;-69
2021/05/13 08:59:58;;;;;;;2.20;2.00;;;14.20;66.80;;;;;;5095696;28;20020;-69
2021/05/13 09:02:29;;;;;;;4.72;1.98;;;14.50;66.70;;;;;;5094607;28;20020;-69
2021/05/13 09:04:57;;;;;;;3.25;2.03;;;14.40;65.30;;;;;;5094039;28;20016;-69
2021/05/13 09:07:28;;;;;;;3.47;2.13;;;14.40;65.30;;;;;;5095008;28;20036;-69
2021/05/13 09:10:14;;;;;;;4.45;1.60;;;14.40;66.00;;;;;;5095098;28;20027;-69
2021/05/13 09:12:51;;;;;;;3.03;2.72;;;14.50;65.30;;;;;;5095827;28;20031;-69
2021/05/13 09:15:27;;;;;;;2.03;1.92;;;14.30;66.00;;;;;;5093493;28;20024;-69
2021/05/13 09:17:57;;;;;;;2.33;2.13;;;14.30;65.50;;;;;;5093527;28;20474;-69
2021/05/13 09:20:49;;;;;;;2.42;2.20;;;14.30;66.20;;;;;;5093009;28;20027;-69
2021/05/13 09:23:28;;;;;;;1.50;1.40;;;14.30;64.70;;;;;;5092175;28;20366;-68
2021/05/13 09:26:16;;;;;;;2.38;1.95;;;14.50;66.50;;;;;;5092251;28;20016;-69
2021/05/13 09:28:47;;;;;;;5.22;2.50;;;14.50;65.70;;;;;;5093388;28;20067;-69
2021/05/13 09:31:36;;;;;;;2.95;2.22;;;14.50;65.40;;;;;;5095386;28;20464;-68
2021/05/13 09:34:07;;;;;;;4.75;2.28;;;14.60;64.90;;;;;;5084216;28;20032;-69
2021/05/13 09:36:35;;;;;;;4.43;2.58;;;14.50;65.40;;;;;;5093717;28;20424;-69
2021/05/13 09:39:23;;;;;;;2.60;2.15;;;14.60;65.40;;;;;;5093965;28;20355;-68
2021/05/13 09:42:06;;;;;;;4.03;2.28;;;14.60;65.40;;;;;;5087924;28;20024;-68
2021/05/13 09:44:37;;;;;;;3.53;2.00;;;14.40;65.70;;;;;;5091064;28;20367;-69
2021/05/13 09:47:17;;;;;;;8.38;2.50;;;14.40;64.90;;;;;;5104442;28;20020;-69
2021/05/13 09:50:05;;;;;;;3.03;1.77;;;14.60;65.70;;;;;;5082930;28;20028;-69
2021/05/13 09:52:39;;;;;;;4.20;1.85;;;14.50;65.20;;;;;;5089171;28;20033;-69
2021/05/13 09:55:21;;;;;;;1.92;1.83;;;14.60;66.00;;;;;;5090962;28;20039;-69
2021/05/13 09:58:07;;;;;;;7.88;2.60;;;14.50;65.60;;;;;;5087884;28;20020;-69
2021/05/13 10:00:48;;;;;;;5.13;2.05;;;14.50;64.70;;;;;;5097271;28;20527;-69
2021/05/13 10:03:18;;;;;;;5.13;2.20;;;14.40;65.20;;;;;;5107564;28;20108;-68
2021/05/13 10:05:50;;;;;;;3.63;1.77;;;14.30;65.80;;;;;;5100031;28;20077;-69
2021/05/13 10:08:19;;;;;;;1.73;1.63;;;14.10;65.90;;;;;;5093244;28;20032;-68
2021/05/13 10:10:47;;;;;;;2.88;2.35;;;14.20;66.80;;;;;;5092228;28;20024;-68
2021/05/13 10:13:18;;;;;;;4.53;2.25;;;14.30;66.30;;;;;;5087478;28;20027;-68
2021/05/13 10:15:45;;;;;;;1.40;1.30;;;14.20;65.80;;;;;;5084172;28;20034;-69
2021/05/13 10:18:22;;;;;;;2.78;2.13;;;14.30;66.10;;;;;;5084243;28;20024;-69
2021/05/13 10:21:22;;;;;;;2.35;1.83;;;14.30;66.00;;;;;;5094220;28;20023;-69
2021/05/13 10:23:50;;;;;;;1.85;1.75;;;14.40;65.40;;;;;;5072126;28;20032;-69
2021/05/13 10:26:40;;;;;;;2.38;1.83;;;14.30;65.90;;;;;;5093691;28;20028;-68
2021/05/13 10:29:27;;;;;;;3.72;1.55;;;14.10;66.50;;;;;;5089860;28;20081;-68
2021/05/13 10:32:15;;;;;;;1.95;1.75;;;14.10;66.70;;;;;;5094866;28;20058;-69
2021/05/13 10:34:42;;;;;;;1.75;1.65;;;14.20;65.90;;;;;;5082912;28;20032;-68
2021/05/13 10:37:30;;;;;;;1.70;1.60;;;14.20;66.10;;;;;;5083343;28;20451;-68
2021/05/13 10:40:12;;;;;;;2.78;2.30;;;14.20;65.80;;;;;;5093645;28;20188;-69
2021/05/13 10:42:40;;;;;;;3.78;1.92;;;14.20;66.00;;;;;;5095480;28;20035;-69
2021/05/13 10:45:30;;;;;;;1.80;1.70;;;14.30;65.80;;;;;;5093676;28;20113;-68
2021/05/13 10:48:10;;;;;;;2.22;2.05;;;14.20;66.00;;;;;;5090391;28;20035;-69
2021/05/13 10:50:54;;;;;;;1.77;1.58;;;14.20;65.80;;;;;;5093567;28;20023;-69
2021/05/13 10:53:50;;;;;;;2.25;2.05;;;14.30;65.80;;;;;;5092235;28;20024;-69
2021/05/13 10:56:22;;;;;;;3.70;1.77;;;14.20;66.40;;;;;;5093750;28;20224;-69
2021/05/13 10:59:08;;;;;;;3.50;1.63;;;14.30;66.30;;;;;;5092025;28;20074;-69
2021/05/13 11:01:40;;;;;;;1.90;1.80;;;14.30;65.60;;;;;;5083638;28;20028;-69
2021/05/13 11:07:20;;;;;;;1.90;1.77;;;14.20;66.70;;;;;;5094334;28;20039;-68
2021/05/13 11:09:53;;;;;;;4.65;1.52;;;13.90;66.50;;;;;;5069234;28;20040;-69
2021/05/13 11:12:27;;;;;;;2.58;2.22;;;14.10;66.60;;;;;;5091206;28;20416;-69
2021/05/13 11:15:04;;;;;;;1.83;1.55;;;14.00;66.60;;;;;;5093454;28;20089;-69
2021/05/13 11:20:27;;;;;;;1.58;1.48;;;14.00;67.00;;;;;;5091681;28;20784;-69
2021/05/13 11:22:56;;;;;;;1.52;1.42;;;14.00;66.30;;;;;;5091961;28;20033;-69
2021/05/13 11:25:24;;;;;;;3.65;1.67;;;14.00;65.90;;;;;;5094204;28;20017;-69
2021/05/13 11:27:51;;;;;;;3.22;1.70;;;14.00;67.00;;;;;;5093293;28;20020;-69
2021/05/13 11:30:24;;;;;;;1.90;1.80;;;13.90;66.80;;;;;;5092409;28;20486;-68
2021/05/13 11:32:53;;;;;;;1.58;1.52;;;14.00;66.70;;;;;;5092404;28;20051;-69
2021/05/13 11:35:22;;;;;;;2.10;1.83;;;14.00;67.40;;;;;;5095488;28;20028;-69
2021/05/13 11:37:54;;;;;;;4.13;1.70;;;14.10;66.30;;;;;;5094893;28;20032;-69
2021/05/13 11:40:23;;;;;;;1.75;1.58;;;14.10;67.60;;;;;;5097036;28;20032;-69
2021/05/13 11:42:50;;;;;;;3.38;1.40;;;13.90;66.40;;;;;;5097037;28;20031;-69
2021/05/13 11:45:18;;;;;;;3.90;2.08;;;13.90;67.00;;;;;;5096832;28;20469;-69
2021/05/13 11:47:45;;;;;;;4.32;1.73;;;14.10;67.30;;;;;;5096889;28;20463;-69
2021/05/13 11:50:28;;;;;;;2.33;1.75;;;13.90;67.20;;;;;;5095113;28;20036;-69
2021/05/13 11:53:15;;;;;;;3.92;1.95;;;13.90;67.30;;;;;;5094177;28;20023;-69
2021/05/13 11:55:43;;;;;;;2.50;2.30;;;13.80;67.60;;;;;;5078031;28;20103;-70
2021/05/13 11:58:14;;;;;;;1.65;1.55;;;13.90;67.30;;;;;;5094957;28;20035;-69
2021/05/13 12:00:41;;;;;;;1.88;1.70;;;13.90;67.00;;;;;;5085771;28;20438;-70
2021/05/13 12:03:09;;;;;;;2.42;1.60;;;13.70;67.40;;;;;;5095567;28;20043;-69
2021/05/13 12:05:54;;;;;;;4.38;2.45;;;13.90;67.70;;;;;;5077432;28;20068;-69
2021/05/13 12:08:22;;;;;;;7.10;2.70;;;13.90;67.10;;;;;;5096710;28;20030;-69
2021/05/13 12:10:50;;;;;;;3.30;2.47;;;13.90;66.70;;;;;;5093098;28;20024;-69
2021/05/13 12:13:17;;;;;;;5.88;2.67;;;13.90;67.40;;;;;;5089767;28;20034;-69
2021/05/13 12:15:44;;;;;;;3.42;2.58;;;14.00;67.00;;;;;;5096606;28;20028;-69
2021/05/13 12:18:11;;;;;;;2.30;1.90;;;14.10;67.40;;;;;;5092980;28;20358;-69
2021/05/13 12:20:41;;;;;;;5.63;2.72;;;13.80;67.00;;;;;;5099620;28;20355;-69
2021/05/13 12:23:07;;;;;;;4.97;2.13;;;13.90;67.30;;;;;;5094873;28;20036;-67
2021/05/13 12:25:36;;;;;;;3.80;2.83;;;14.00;66.80;;;;;;5096192;28;20378;-68
2021/05/13 12:28:03;;;;;;;2.13;1.55;;;13.90;66.50;;;;;;5093837;28;20020;-70
2021/05/13 12:30:30;;;;;;;1.35;1.25;;;13.90;67.40;;;;;;5095873;28;20028;-69
2021/05/13 12:32:57;;;;;;;2.10;2.00;;;13.90;66.80;;;;;;5092583;28;20673;-70
2021/05/13 12:35:30;;;;;;;4.00;1.85;;;14.10;67.20;;;;;;5095279;28;20024;-69
2021/05/13 12:38:21;;;;;;;5.30;1.80;;;14.00;67.10;;;;;;5095789;28;20016;-69
2021/05/13 12:40:48;;;;;;;8.15;3.63;;;14.00;67.00;;;;;;5085878;28;20032;-69
2021/05/13 12:43:20;;;;;;;2.08;1.98;;;14.00;66.60;;;;;;5095712;28;20481;-69
2021/05/13 12:45:48;;;;;;;6.55;2.72;;;14.00;66.80;;;;;;5076975;28;20066;-69
2021/05/13 12:48:26;;;;;;;3.17;2.97;;;13.90;66.50;;;;;;5093874;28;20050;-69
2021/05/13 12:51:00;;;;;;;2.92;2.47;;;13.80;67.20;;;;;;5095821;28;20020;-69
2021/05/13 12:53:28;;;;;;;2.20;2.10;;;13.90;67.30;;;;;;5085473;28;20054;-69
2021/05/13 12:55:55;;;;;;;6.60;2.60;;;13.80;67.20;;;;;;5096125;28;20016;-69
2021/05/13 12:58:27;;;;;;;2.45;2.25;;;13.90;67.50;;;;;;5094063;28;20025;-69
2021/05/13 13:01:02;;;;;;;7.32;2.10;;;13.90;66.60;;;;;;5083729;28;20428;-69
2021/05/13 13:03:41;;;;;;;2.85;2.00;;;13.90;67.10;;;;;;5092105;28;20028;-69
2021/05/13 13:06:15;;;;;;;4.80;1.90;;;13.90;67.70;;;;;;5093890;28;20031;-69
2021/05/13 13:08:47;;;;;;;2.75;2.30;;;13.90;67.10;;;;;;5093497;28;20028;-69
2021/05/13 13:11:29;;;;;;;5.22;2.00;;;13.90;66.90;;;;;;5083437;28;20024;-69
2021/05/13 13:13:59;;;;;;;3.10;2.47;;;13.90;67.50;;;;;;5094135;28;20028;-68